Time;durP1;ratioP1;P1;durP2;ratioP2;P2;SDS_P1;SDS_P2;PMS_P1;PMS_P2;Temp;Humidity;BMP_temperature;BMP_pressure;BME280_temperature;BME280_humidity;BME280_pressure;Samples;Min_cycle;Max_cycle;Signal;HPM_P1;HPM_P2
2024/01/26 00:01:32;;;;;;;;;;;;;;;3.93;91.58;101632.13;104423;1293;73940;-58
2024/01/26 00:04:18;;;;;;;;;;;;;;;3.94;91.62;101629.58;104519;1293;61286;-58
2024/01/26 00:07:05;;;;;;;;;;;;;;;3.94;91.62;101634.35;104450;1294;60083;-58
2024/01/26 00:09:51;;;;;;;;;;;;;;;3.94;91.61;101637.10;104509;1294;73265;-57
2024/01/26 00:12:37;;;;;;;;;;;;;;;3.95;91.67;101634.05;104572;1293;67283;-59
2024/01/26 00:15:23;;;;;;;;;;;;;;;3.96;91.66;101632.02;104547;1293;71281;-58
2024/01/26 00:18:10;;;;;;;;;;;;;;;3.97;91.61;101634.61;104594;1291;61164;-57
2024/01/26 00:20:56;;;;;;;;;;;;;;;3.98;91.59;101635.51;104527;1292;60403;-59
2024/01/26 00:23:42;;;;;;;;;;;;;;;4.01;91.57;101636.94;104470;1292;76097;-57
2024/01/26 00:26:28;;;;;;;;;;;;;;;4.06;91.47;101640.30;104428;1293;70033;-56
2024/01/26 00:29:14;;;;;;;;;;;;;;;4.09;91.50;101644.98;104503;1293;74084;-57
2024/01/26 00:32:00;;;;;;;;;;;;;;;4.11;91.56;101648.46;104546;1293;61624;-57
2024/01/26 00:34:46;;;;;;;;;;;;;;;4.12;91.28;101654.29;104495;1293;61127;-58
2024/01/26 00:37:32;;;;;;;;;;;;;;;4.13;91.29;101655.19;104568;1292;75407;-58
2024/01/26 00:40:19;;;;;;;;;;;;;;;4.15;91.21;101654.03;104611;1293;67279;-58
2024/01/26 00:43:05;;;;;;;;;;;;;;;4.18;91.20;101659.55;104504;1296;72523;-57
2024/01/26 00:45:51;;;;;;;;;;;;;;;4.19;91.28;101667.44;104512;1292;63537;-57
2024/01/26 00:48:37;;;;;;;;;;;;;;;4.21;91.12;101673.11;104521;1296;61243;-58
2024/01/26 00:51:23;;;;;;;;;;;;;;;4.22;90.90;101672.45;104515;1292;73739;-58
2024/01/26 00:54:09;;;;;;;;;;;;;;;4.22;90.90;101669.39;104521;1293;67204;-57
2024/01/26 00:56:55;;;;;;;;;;;;;;;4.23;91.02;101672.30;104492;1293;73995;-58
2024/01/26 00:59:41;;;;;;;;;;;;;;;4.23;90.35;101673.70;104575;1291;61247;-58
2024/01/26 01:02:28;;;;;;;;;;;;;;;4.25;90.66;101673.73;101250;1293;5002862;-59
2024/01/26 01:05:14;;;;;;;;;;;;;;;4.24;90.38;101676.94;105675;1292;195821;-58
2024/01/26 01:07:59;;;;;;;;;;;;;;;4.24;90.52;101677.81;105818;1292;71462;-59
2024/01/26 01:10:45;;;;;;;;;;;;;;;4.26;90.61;101678.20;105661;1292;198045;-59
2024/01/26 01:13:31;;;;;;;;;;;;;;;4.29;90.35;101675.88;105792;1293;59342;-59
2024/01/26 01:16:18;;;;;;;;;;;;;;;4.32;90.72;101676.99;105921;1291;73100;-58
2024/01/26 01:19:04;;;;;;;;;;;;;;;4.34;90.53;101679.26;105831;1291;68483;-61
2024/01/26 01:21:50;;;;;;;;;;;;;;;4.35;90.47;101680.48;105841;1293;72587;-59
2024/01/26 01:24:36;;;;;;;;;;;;;;;4.36;90.32;101679.98;105842;1292;59041;-59
2024/01/26 01:27:22;;;;;;;;;;;;;;;4.36;90.50;101685.29;105829;1293;59026;-59
2024/01/26 01:30:11;;;;;;;;;;;;;;;4.37;90.58;101689.58;105893;1291;75123;-59
2024/01/26 01:32:57;;;;;;;;;;;;;;;4.39;90.56;101691.16;90972;1294;10001492;-59
2024/01/26 01:35:43;;;;;;;;;;;;;;;4.40;90.65;101692.21;105736;1293;59001;-59
2024/01/26 01:38:29;;;;;;;;;;;;;;;4.40;90.53;101701.60;105890;1293;73403;-59
2024/01/26 01:41:15;;;;;;;;;;;;;;;4.42;90.55;101700.98;105873;1292;69173;-59
2024/01/26 01:44:01;;;;;;;;;;;;;;;4.43;90.65;101703.41;105835;1293;71281;-59
2024/01/26 01:46:47;;;;;;;;;;;;;;;4.43;90.60;101703.91;105807;1292;58981;-58
2024/01/26 01:49:33;;;;;;;;;;;;;;;4.39;90.67;101699.89;105784;1293;59173;-59
2024/01/26 01:52:20;;;;;;;;;;;;;;;4.38;90.71;101697.96;105860;1293;74065;-59
2024/01/26 01:55:08;;;;;;;;;;;;;;;4.36;90.70;101699.28;105581;1292;269295;-59
2024/01/26 01:57:55;;;;;;;;;;;;;;;4.37;90.82;101695.73;105859;1292;72874;-59
2024/01/26 02:00:41;;;;;;;;;;;;;;;4.36;90.83;101695.88;105825;1293;59218;-59
2024/01/26 02:03:28;;;;;;;;;;;;;;;4.36;90.81;101695.52;105826;1292;59762;-59
2024/01/26 02:06:14;;;;;;;;;;;;;;;4.36;90.84;101696.23;105840;1292;74393;-59
2024/01/26 02:09:00;;;;;;;;;;;;;;;4.33;90.38;101694.95;105800;1292;68012;-59
2024/01/26 02:11:46;;;;;;;;;;;;;;;4.29;90.59;101686.30;105885;1292;71181;-59
2024/01/26 02:14:32;;;;;;;;;;;;;;;4.29;90.68;101690.58;105871;1293;59715;-59
2024/01/26 02:17:18;;;;;;;;;;;;;;;4.30;90.73;101691.45;105816;1293;59565;-59
2024/01/26 02:20:04;;;;;;;;;;;;;;;4.31;90.71;101694.21;105868;1293;74585;-59
2024/01/26 02:22:50;;;;;;;;;;;;;;;4.32;90.74;101695.77;105822;1293;67524;-59
2024/01/26 02:25:36;;;;;;;;;;;;;;;4.31;90.84;101687.73;105834;1292;71397;-59
2024/01/26 02:28:23;;;;;;;;;;;;;;;4.29;90.74;101685.98;105859;1293;59312;-59
2024/01/26 02:31:09;;;;;;;;;;;;;;;4.27;90.85;101684.89;105832;1293;58650;-59
2024/01/26 02:33:55;;;;;;;;;;;;;;;4.26;90.85;101680.23;105815;1293;74677;-59
2024/01/26 02:36:41;;;;;;;;;;;;;;;4.23;90.44;101683.23;105870;1292;67391;-59
2024/01/26 02:39:28;;;;;;;;;;;;;;;4.22;90.69;101680.98;105846;1296;70981;-59
2024/01/26 02:42:14;;;;;;;;;;;;;;;4.21;90.57;101679.95;105796;1292;59061;-59
2024/01/26 02:45:00;;;;;;;;;;;;;;;4.17;90.72;101679.48;105792;1293;59003;-58
2024/01/26 02:47:46;;;;;;;;;;;;;;;4.13;90.63;101685.04;105816;1293;74444;-59
2024/01/26 02:50:33;;;;;;;;;;;;;;;4.14;90.78;101683.69;105838;1293;67236;-58
2024/01/26 02:53:19;;;;;;;;;;;;;;;4.15;90.78;101682.88;105796;1291;71411;-59
2024/01/26 02:56:08;;;;;;;;;;;;;;;4.14;90.76;101683.70;105806;1296;59154;-59
2024/01/26 02:58:54;;;;;;;;;;;;;;;4.04;90.52;101688.20;105892;1292;59007;-58
2024/01/26 03:01:40;;;;;;;;;;;;;;;3.99;90.65;101693.02;105816;1293;73418;-59
2024/01/26 03:04:26;;;;;;;;;;;;;;;3.98;90.66;101691.44;101927;1294;5003907;-59
2024/01/26 03:07:12;;;;;;;;;;;;;;;3.97;90.64;101695.86;105830;1292;72727;-59
2024/01/26 03:09:58;;;;;;;;;;;;;;;3.96;90.68;101699.07;105182;1291;61362;-57
2024/01/26 03:12:44;;;;;;;;;;;;;;;3.93;90.65;101706.67;104501;1293;60190;-58
2024/01/26 03:15:30;;;;;;;;;;;;;;;3.91;90.64;101705.55;104538;1293;74119;-56
2024/01/26 03:18:17;;;;;;;;;;;;;;;3.87;90.73;101708.36;104587;1293;68547;-58
2024/01/26 03:21:04;;;;;;;;;;;;;;;3.86;90.72;101716.00;104550;1293;72172;-58
2024/01/26 03:23:50;;;;;;;;;;;;;;;3.83;90.65;101726.48;104530;1294;61232;-58
2024/01/26 03:26:37;;;;;;;;;;;;;;;3.81;90.73;101722.50;104533;1293;61055;-57
2024/01/26 03:29:23;;;;;;;;;;;;;;;3.80;90.69;101715.33;104499;1293;73401;-58
2024/01/26 03:32:09;;;;;;;;;;;;;;;3.79;90.59;101711.53;104444;1293;67216;-58
2024/01/26 03:34:55;;;;;;;;;;;;;;;3.72;90.51;101709.77;104570;1293;71269;-58
2024/01/26 03:37:41;;;;;;;;;;;;;;;3.67;90.55;101712.39;104579;1293;61133;-57
2024/01/26 03:40:28;;;;;;;;;;;;;;;3.63;90.51;101712.62;104531;1296;62087;-56
2024/01/26 03:43:14;;;;;;;;;;;;;;;3.58;90.45;101715.55;104521;1294;75946;-56
2024/01/26 03:46:02;;;;;;;;;;;;;;;3.55;90.47;101712.55;104576;1292;70132;-57
2024/01/26 03:48:48;;;;;;;;;;;;;;;3.52;90.46;101714.69;104567;1292;74228;-58
2024/01/26 03:51:35;;;;;;;;;;;;;;;3.49;90.38;101714.73;104539;1294;62226;-57
2024/01/26 03:54:21;;;;;;;;;;;;;;;3.42;90.43;101721.20;104588;1292;61390;-58
2024/01/26 03:57:08;;;;;;;;;;;;;;;3.40;90.44;101712.42;104518;1296;74168;-57
2024/01/26 03:59:54;;;;;;;;;;;;;;;3.37;90.41;101713.87;104509;1293;68481;-58
2024/01/26 04:02:40;;;;;;;;;;;;;;;3.30;90.33;101715.88;104524;1296;72615;-57
2024/01/26 04:05:26;;;;;;;;;;;;;;;3.25;90.42;101720.81;104478;1293;61090;-60
2024/01/26 04:08:13;;;;;;;;;;;;;;;3.21;90.49;101722.05;104525;1296;60923;-57
2024/01/26 04:10:59;;;;;;;;;;;;;;;3.19;90.48;101721.14;104624;1296;73582;-58
2024/01/26 04:13:45;;;;;;;;;;;;;;;3.16;90.46;101720.54;104534;1292;67221;-55
2024/01/26 04:16:32;;;;;;;;;;;;;;;3.15;90.46;101717.25;104479;1296;71001;-58
2024/01/26 04:19:19;;;;;;;;;;;;;;;3.10;90.35;101715.92;104610;1296;60066;-58
2024/01/26 04:22:06;;;;;;;;;;;;;;;3.06;90.31;101706.08;104537;1296;61497;-58
2024/01/26 04:24:52;;;;;;;;;;;;;;;3.03;90.45;101703.78;104468;1293;77090;-58
2024/01/26 04:27:38;;;;;;;;;;;;;;;3.03;90.53;101708.89;104499;1294;70084;-57
2024/01/26 04:30:24;;;;;;;;;;;;;;;3.03;90.59;101697.67;104576;1292;71318;-58
2024/01/26 04:33:10;;;;;;;;;;;;;;;3.04;90.66;101697.00;104494;1293;61281;-58
2024/01/26 04:35:57;;;;;;;;;;;;;;;3.02;90.58;101693.02;104474;1295;61191;-58
2024/01/26 04:38:43;;;;;;;;;;;;;;;3.03;90.66;101698.18;104914;1293;309630;-59
2024/01/26 04:41:29;;;;;;;;;;;;;;;3.03;90.56;101697.83;105821;1293;67670;-59
2024/01/26 04:44:15;;;;;;;;;;;;;;;2.99;90.43;101691.73;105756;1293;71472;-58
2024/01/26 04:47:01;;;;;;;;;;;;;;;3.01;90.49;101698.27;105817;1296;59032;-60
2024/01/26 04:49:47;;;;;;;;;;;;;;;3.03;90.54;101694.41;105840;1292;59164;-59
2024/01/26 04:52:33;;;;;;;;;;;;;;;3.03;90.40;101690.31;105815;1292;74815;-59
2024/01/26 04:55:23;;;;;;;;;;;;;;;3.03;90.53;101691.17;105859;1293;68659;-59
2024/01/26 04:58:09;;;;;;;;;;;;;;;3.05;90.52;101687.52;105830;1293;71397;-59
2024/01/26 05:00:54;;;;;;;;;;;;;;;3.08;90.50;101686.41;105758;1291;59219;-59
2024/01/26 05:03:40;;;;;;;;;;;;;;;3.12;90.57;101686.00;105390;1293;278416;-59
2024/01/26 05:06:26;;;;;;;;;;;;;;;3.11;90.41;101687.85;105836;1292;75258;-59
2024/01/26 05:09:13;;;;;;;;;;;;;;;3.09;90.52;101686.95;105705;1292;196301;-59
2024/01/26 05:11:59;;;;;;;;;;;;;;;3.10;90.50;101687.83;105801;1291;72376;-59
2024/01/26 05:14:45;;;;;;;;;;;;;;;3.11;90.72;101686.85;105810;1293;59331;-58
2024/01/26 05:17:30;;;;;;;;;;;;;;;3.14;90.71;101684.02;105807;1293;59927;-59
2024/01/26 05:20:17;;;;;;;;;;;;;;;3.13;90.58;101683.31;105851;1293;74518;-59
2024/01/26 05:23:03;;;;;;;;;;;;;;;3.07;90.51;101684.65;105842;1294;67385;-59
2024/01/26 05:25:49;;;;;;;;;;;;;;;3.05;90.70;101688.19;105754;1293;72453;-58
2024/01/26 05:28:35;;;;;;;;;;;;;;;3.01;90.58;101688.05;105902;1291;59591;-59
2024/01/26 05:31:21;;;;;;;;;;;;;;;2.97;90.68;101685.52;105831;1292;59238;-59
2024/01/26 05:34:30;;;;;;;;;;;;;;;2.96;90.86;101691.30;49362;1293;20002169;-59
2024/01/26 05:37:16;;;;;;;;;;;;;;;2.96;90.73;101691.98;105780;1293;64370;-59
2024/01/26 05:40:08;;;;;;;;;;;;;;;2.94;90.92;101691.77;101977;1293;5003435;-59
2024/01/26 05:42:54;;;;;;;;;;;;;;;3.00;91.14;101696.19;105804;1291;72451;-59
2024/01/26 05:45:40;;;;;;;;;;;;;;;3.05;91.12;101690.41;105820;1295;58981;-59
2024/01/26 05:48:26;;;;;;;;;;;;;;;3.08;91.22;101692.71;105780;1296;59090;-59
2024/01/26 05:51:12;;;;;;;;;;;;;;;3.11;91.35;101698.08;105816;1293;73446;-59
2024/01/26 05:53:58;;;;;;;;;;;;;;;3.15;91.30;101686.77;105907;1291;68596;-59
2024/01/26 05:56:44;;;;;;;;;;;;;;;3.19;91.34;101687.41;105846;1292;72005;-59
2024/01/26 05:59:30;;;;;;;;;;;;;;;3.19;91.32;101688.27;105783;1293;59566;-58
2024/01/26 06:02:16;;;;;;;;;;;;;;;3.21;91.35;101687.99;105801;1293;58974;-59
2024/01/26 06:05:03;;;;;;;;;;;;;;;3.23;91.33;101689.25;105826;1293;75334;-59
2024/01/26 06:07:49;;;;;;;;;;;;;;;3.27;91.36;101682.89;105737;1293;67424;-59
2024/01/26 06:10:36;;;;;;;;;;;;;;;3.30;91.35;101681.13;105844;1293;72922;-59
2024/01/26 06:13:22;;;;;;;;;;;;;;;3.30;91.30;101686.05;105857;1292;59024;-59
2024/01/26 06:16:12;;;;;;;;;;;;;;;3.30;91.47;101682.13;105864;1292;59431;-59
2024/01/26 06:18:57;;;;;;;;;;;;;;;3.31;91.49;101680.63;105832;1293;74578;-59
2024/01/26 06:21:43;;;;;;;;;;;;;;;3.35;91.52;101682.27;105833;1293;68596;-59
2024/01/26 06:24:29;;;;;;;;;;;;;;;3.36;91.52;101685.02;105855;1292;71314;-59
2024/01/26 06:27:15;;;;;;;;;;;;;;;3.36;91.57;101680.63;105767;1293;58894;-59
2024/01/26 06:30:01;;;;;;;;;;;;;;;3.36;91.59;101681.64;105466;1293;59754;-58
2024/01/26 06:32:47;;;;;;;;;;;;;;;3.39;91.55;101682.73;104675;1292;76166;-58
2024/01/26 06:35:33;;;;;;;;;;;;;;;3.41;91.55;101688.92;104502;1293;72954;-58
2024/01/26 06:38:19;;;;;;;;;;;;;;;3.40;91.63;101689.95;104474;1292;72358;-55
2024/01/26 06:41:06;;;;;;;;;;;;;;;3.40;91.57;101689.58;104547;1294;61288;-56
2024/01/26 06:43:53;;;;;;;;;;;;;;;3.40;91.56;101684.80;104536;1293;61304;-57
2024/01/26 06:46:39;;;;;;;;;;;;;;;3.39;91.58;101687.00;104530;1292;73254;-55
2024/01/26 06:49:25;;;;;;;;;;;;;;;3.41;91.64;101690.62;104471;1293;69864;-58
2024/01/26 06:52:11;;;;;;;;;;;;;;;3.40;91.59;101686.19;104539;1292;74027;-57
2024/01/26 06:54:57;;;;;;;;;;;;;;;3.42;91.64;101686.92;104517;1293;61457;-58
2024/01/26 06:57:43;;;;;;;;;;;;;;;3.42;91.62;101684.02;104532;1297;61276;-58
2024/01/26 07:00:30;;;;;;;;;;;;;;;3.43;91.61;101685.74;104552;1292;73312;-58
2024/01/26 07:03:16;;;;;;;;;;;;;;;3.43;91.58;101685.59;104509;1292;72092;-58
2024/01/26 07:06:02;;;;;;;;;;;;;;;3.44;91.56;101689.20;104473;1296;71412;-57
2024/01/26 07:08:48;;;;;;;;;;;;;;;3.43;91.52;101684.92;104491;1294;61519;-58
2024/01/26 07:11:37;;;;;;;;;;;;;;;3.44;91.56;101675.90;104533;1292;61156;-57
2024/01/26 07:14:24;;;;;;;;;;;;;;;3.45;91.43;101677.30;104577;1293;74313;-57
2024/01/26 07:17:10;;;;;;;;;;;;;;;3.44;91.29;101676.77;104499;1293;67839;-58
2024/01/26 07:19:56;;;;;;;;;;;;;;;3.45;91.40;101673.89;104485;1296;71516;-57
2024/01/26 07:22:42;;;;;;;;;;;;;;;3.50;91.40;101673.72;104596;1293;61213;-57
2024/01/26 07:25:30;;;;;;;;;;;;;;;3.55;91.55;101672.48;104531;1294;59426;-58
2024/01/26 07:28:16;;;;;;;;;;;;;;;3.52;91.39;101663.18;104492;1293;73308;-58
2024/01/26 07:31:02;;;;;;;;;;;;;;;3.54;91.52;101667.69;104486;1293;71163;-57
2024/01/26 07:33:48;;;;;;;;;;;;;;;3.58;91.61;101671.55;104519;1296;72744;-57
2024/01/26 07:36:36;;;;;;;;;;;;;;;3.56;91.51;101667.23;104617;1293;61246;-58
2024/01/26 07:39:22;;;;;;;;;;;;;;;3.56;91.60;101665.71;104650;1292;61120;-58
2024/01/26 07:42:08;;;;;;;;;;;;;;;3.54;91.56;101664.45;104495;1293;73450;-59
2024/01/26 07:44:55;;;;;;;;;;;;;;;3.56;91.56;101662.28;104549;1296;67313;-58
2024/01/26 07:47:41;;;;;;;;;;;;;;;3.59;91.54;101663.58;104454;1294;71217;-56
2024/01/26 07:50:27;;;;;;;;;;;;;;;3.62;91.54;101658.56;104459;1292;61557;-58
2024/01/26 07:53:13;;;;;;;;;;;;;;;3.66;91.45;101651.29;104536;1296;61164;-58
2024/01/26 07:55:59;;;;;;;;;;;;;;;3.66;90.41;101644.50;104593;1296;72623;-58
2024/01/26 07:58:46;;;;;;;;;;;;;;;3.72;90.36;101645.16;104516;1293;67168;-58
2024/01/26 08:01:32;;;;;;;;;;;;;;;3.77;90.84;101645.83;104997;1291;72154;-59
2024/01/26 08:04:18;;;;;;;;;;;;;;;3.87;91.25;101640.99;98400;1293;10002933;-59
2024/01/26 08:07:04;;;;;;;;;;;;;;;4.03;91.33;101638.52;105678;1293;73852;-58
2024/01/26 08:09:50;;;;;;;;;;;;;;;4.30;91.59;101635.98;105799;1296;67319;-59
2024/01/26 08:12:36;;;;;;;;;;;;;;;4.56;91.84;101640.06;105786;1296;71162;-59
2024/01/26 08:15:22;;;;;;;;;;;;;;;4.77;91.47;101638.48;105796;1293;59249;-59
2024/01/26 08:18:08;;;;;;;;;;;;;;;5.10;90.98;101635.85;105795;1292;59473;-59
2024/01/26 08:20:57;;;;;;;;;;;;;;;5.30;90.94;101633.03;105824;1293;75098;-59
2024/01/26 08:23:45;;;;;;;;;;;;;;;5.26;89.86;101629.52;105827;1294;68543;-59
2024/01/26 08:26:31;;;;;;;;;;;;;;;5.24;90.16;101624.70;105804;1296;72005;-58
2024/01/26 08:29:21;;;;;;;;;;;;;;;5.22;89.65;101621.91;105783;1293;59501;-59
2024/01/26 08:32:07;;;;;;;;;;;;;;;5.31;89.90;101619.71;105825;1296;59082;-58
2024/01/26 08:34:53;;;;;;;;;;;;;;;5.22;88.76;101613.02;105826;1293;74421;-59
2024/01/26 08:37:48;;;;;;;;;;;;;;;5.34;88.92;101609.02;105788;1293;68203;-59
2024/01/26 08:40:34;;;;;;;;;;;;;;;5.41;88.86;101604.71;105792;1293;72110;-59
2024/01/26 08:43:20;;;;;;;;;;;;;;;5.61;90.19;101598.79;105839;1295;59196;-59
2024/01/26 08:46:06;;;;;;;;;;;;;;;5.83;90.05;101595.45;105823;1296;60074;-59
2024/01/26 08:48:52;;;;;;;;;;;;;;;6.01;88.79;101592.73;105831;1293;73993;-59
2024/01/26 08:51:38;;;;;;;;;;;;;;;6.16;87.73;101581.71;105819;1293;67224;-59
2024/01/26 08:54:25;;;;;;;;;;;;;;;6.37;88.45;101583.23;105839;1296;71554;-59
2024/01/26 08:57:11;;;;;;;;;;;;;;;6.51;88.38;101583.64;105761;1296;59785;-59
2024/01/26 08:59:58;;;;;;;;;;;;;;;6.56;88.00;101580.46;105797;1293;60032;-59
2024/01/26 09:02:44;;;;;;;;;;;;;;;6.47;87.13;101580.83;105820;1292;73279;-59
2024/01/26 09:05:29;;;;;;;;;;;;;;;6.45;87.11;101578.40;105799;1293;69091;-59
2024/01/26 09:08:15;;;;;;;;;;;;;;;6.54;85.69;101577.34;105791;1293;73376;-59
2024/01/26 09:11:01;;;;;;;;;;;;;;;6.60;85.62;101573.35;105861;1293;58996;-59
2024/01/26 09:13:47;;;;;;;;;;;;;;;6.71;85.44;101563.40;105834;1292;60006;-59
2024/01/26 09:16:34;;;;;;;;;;;;;;;6.76;84.94;101558.14;105743;1293;73482;-59
2024/01/26 09:19:21;;;;;;;;;;;;;;;7.04;86.01;101550.46;105819;1292;68666;-59
2024/01/26 09:22:07;;;;;;;;;;;;;;;7.19;86.35;101542.11;105826;1293;71449;-59
2024/01/26 09:24:53;;;;;;;;;;;;;;;7.31;82.24;101541.54;105842;1292;59331;-59
2024/01/26 09:27:39;;;;;;;;;;;;;;;7.14;81.66;101538.62;105802;1296;59905;-59
2024/01/26 09:30:25;;;;;;;;;;;;;;;7.39;84.95;101534.77;105839;1293;73384;-59
2024/01/26 09:33:11;;;;;;;;;;;;;;;7.32;83.46;101526.97;105830;1295;67473;-58
2024/01/26 09:35:57;;;;;;;;;;;;;;;7.19;83.17;101530.11;105808;1293;71326;-59
2024/01/26 09:38:43;;;;;;;;;;;;;;;7.17;82.11;101534.70;105796;1293;59219;-59
2024/01/26 09:41:29;;;;;;;;;;;;;;;7.18;82.83;101536.61;105848;1292;59352;-60
2024/01/26 09:44:15;;;;;;;;;;;;;;;7.07;83.39;101531.31;105822;1293;73203;-60
2024/01/26 09:47:04;;;;;;;;;;;;;;;7.01;84.04;101522.83;105753;1293;67611;-60
2024/01/26 09:49:59;;;;;;;;;;;;;;;7.06;84.36;101518.27;105825;1293;72339;-59
2024/01/26 09:52:46;;;;;;;;;;;;;;;7.06;84.17;101509.86;105753;1293;58685;-59
2024/01/26 09:55:32;;;;;;;;;;;;;;;7.11;84.70;101498.28;105809;1293;59797;-58
2024/01/26 09:58:18;;;;;;;;;;;;;;;7.07;84.03;101490.01;105856;1292;74874;-59
2024/01/26 10:01:04;;;;;;;;;;;;;;;6.98;83.16;101487.14;105794;1292;69028;-59
2024/01/26 10:04:10;;;;;;;;;;;;;;;6.99;83.62;101485.79;47234;1293;20071954;-60
2024/01/26 10:06:57;;;;;;;;;;;;;;;7.03;83.56;101488.23;105830;1293;62576;-59
2024/01/26 10:09:43;;;;;;;;;;;;;;;7.01;83.38;101496.27;105794;1293;59019;-60
2024/01/26 10:12:30;;;;;;;;;;;;;;;6.67;82.32;101493.08;101802;1296;5004215;-59
2024/01/26 10:15:16;;;;;;;;;;;;;;;6.55;82.13;101481.95;105803;1293;72918;-61
2024/01/26 10:18:02;;;;;;;;;;;;;;;6.75;83.84;101472.45;105824;1292;67264;-59
2024/01/26 10:20:48;;;;;;;;;;;;;;;6.85;81.76;101463.14;105807;1293;71175;-60
2024/01/26 10:23:35;;;;;;;;;;;;;;;6.79;80.01;101453.47;105559;1296;211192;-59
2024/01/26 10:26:23;;;;;;;;;;;;;;;6.74;81.80;101444.01;105661;1295;60567;-59
2024/01/26 10:29:10;;;;;;;;;;;;;;;6.72;82.11;101437.46;105625;1295;74976;-60
2024/01/26 10:31:56;;;;;;;;;;;;;;;6.57;82.20;101436.07;105615;1298;67378;-59
2024/01/26 10:34:48;;;;;;;;;;;;;;;6.62;82.70;101429.29;105690;1296;72527;-59
2024/01/26 10:37:34;;;;;;;;;;;;;;;6.46;81.50;101430.96;105556;1296;59080;-59
2024/01/26 10:40:21;;;;;;;;;;;;;;;6.31;81.11;101424.41;105631;1294;60095;-58
2024/01/26 10:43:08;;;;;;;;;;;;;;;6.21;81.15;101417.09;105645;1296;73950;-59
2024/01/26 10:45:55;;;;;;;;;;;;;;;6.13;81.27;101410.98;105651;1298;67467;-58
2024/01/26 10:48:42;;;;;;;;;;;;;;;6.10;81.79;101407.85;104532;1296;71519;-58
2024/01/26 10:51:28;;;;;;;;;;;;;;;6.08;81.77;101393.28;104455;1293;61201;-58
2024/01/26 10:54:16;;;;;;;;;;;;;;;6.05;81.84;101391.02;104311;1295;61329;-58
2024/01/26 10:57:03;;;;;;;;;;;;;;;6.04;81.66;101388.09;104402;1295;73304;-58
2024/01/26 10:59:49;;;;;;;;;;;;;;;5.99;81.04;101379.11;104358;1296;67268;-58
2024/01/26 11:02:36;;;;;;;;;;;;;;;5.93;81.26;101373.38;104345;1298;72886;-57
2024/01/26 11:05:23;;;;;;;;;;;;;;;6.03;81.72;101368.39;104352;1296;63717;-57
2024/01/26 11:08:17;;;;;;;;;;;;;;;6.23;81.02;101355.83;104316;1296;61205;-56
2024/01/26 11:11:03;;;;;;;;;;;;;;;6.36;80.58;101354.27;105532;1295;73387;-57
2024/01/26 11:13:52;;;;;;;;;;;;;;;6.33;80.46;101346.00;104322;1295;69966;-58
2024/01/26 11:16:40;;;;;;;;;;;;;;;6.34;80.37;101335.39;104364;1298;71249;-57
2024/01/26 11:19:30;;;;;;;;;;;;;;;6.32;79.98;101323.39;105667;1297;59034;-58
2024/01/26 11:22:18;;;;;;;;;;;;;;;6.34;80.04;101319.48;105120;1295;59368;-55
2024/01/26 11:25:05;;;;;;;;;;;;;;;6.34;79.45;101304.41;104389;1296;73216;-58
2024/01/26 11:28:01;;;;;;;;;;;;;;;6.46;80.07;101293.27;104465;1295;66482;-58
2024/01/26 11:30:52;;;;;;;;;;;;;;;6.65;78.81;101285.42;104328;1296;71080;-58
2024/01/26 11:33:39;;;;;;;;;;;;;;;6.73;79.10;101268.72;104375;1297;61311;-58
2024/01/26 11:36:31;;;;;;;;;;;;;;;6.67;78.28;101260.44;104416;1296;61128;-55
2024/01/26 11:39:17;;;;;;;;;;;;;;;6.71;79.32;101260.13;104304;1295;73211;-57
2024/01/26 11:42:09;;;;;;;;;;;;;;;6.76;78.30;101261.19;104358;1295;67995;-57
2024/01/26 11:45:08;;;;;;;;;;;;;;;6.72;78.67;101259.11;105639;1296;71398;-58
2024/01/26 11:47:55;;;;;;;;;;;;;;;6.78;78.88;101255.03;105647;1297;59058;-58
2024/01/26 11:50:42;;;;;;;;;;;;;;;6.80;79.03;101241.34;105288;1295;61292;-57
2024/01/26 11:53:29;;;;;;;;;;;;;;;6.93;79.37;101226.55;104240;1296;73360;-57
2024/01/26 11:56:15;;;;;;;;;;;;;;;6.99;79.02;101212.55;104387;1299;68137;-56
2024/01/26 11:59:02;;;;;;;;;;;;;;;7.17;78.14;101213.73;104297;1296;71993;-56
2024/01/26 12:01:48;;;;;;;;;;;;;;;7.29;78.24;101209.85;104381;1298;61321;-55
2024/01/26 12:04:34;;;;;;;;;;;;;;;7.47;78.90;101213.73;104452;1294;59210;-58
2024/01/26 12:07:21;;;;;;;;;;;;;;;7.61;77.91;101202.33;104362;1296;73292;-57
2024/01/26 12:10:13;;;;;;;;;;;;;;;7.59;77.68;101200.60;104381;1293;71265;-57
2024/01/26 12:12:59;;;;;;;;;;;;;;;7.62;77.74;101193.23;104314;1293;73945;-58
2024/01/26 12:15:46;;;;;;;;;;;;;;;7.65;78.36;101188.96;104317;1296;61634;-57
2024/01/26 12:18:33;;;;;;;;;;;;;;;7.61;76.74;101179.67;104165;1296;61173;-57
2024/01/26 12:21:19;;;;;;;;;;;;;;;7.53;77.16;101169.52;104323;1296;73139;-57
2024/01/26 12:24:11;;;;;;;;;;;;;;;7.39;77.14;101161.88;104239;1294;66603;-58
2024/01/26 12:26:57;;;;;;;;;;;;;;;7.21;77.00;101157.51;104277;1295;71314;-58
2024/01/26 12:29:44;;;;;;;;;;;;;;;7.09;77.69;101156.92;104248;1297;61390;-58
2024/01/26 12:32:30;;;;;;;;;;;;;;;6.97;77.44;101159.92;32111;1296;20002655;-59
2024/01/26 12:35:16;;;;;;;;;;;;;;;6.88;77.29;101161.73;104574;1298;72439;-57
2024/01/26 12:38:02;;;;;;;;;;;;;;;6.84;77.88;101152.45;104236;1297;61213;-58
2024/01/26 12:40:49;;;;;;;;;;;;;;;6.77;77.44;101140.91;104342;1296;61177;-58
2024/01/26 12:43:35;;;;;;;;;;;;;;;6.70;77.65;101135.23;104344;1294;76742;-57
2024/01/26 12:46:21;;;;;;;;;;;;;;;6.63;78.08;101136.36;104252;1296;67518;-57
2024/01/26 12:49:07;;;;;;;;;;;;;;;6.59;78.08;101134.61;104310;1297;72446;-57
2024/01/26 12:51:54;;;;;;;;;;;;;;;6.51;78.57;101127.19;104403;1295;61620;-58
2024/01/26 12:54:41;;;;;;;;;;;;;;;6.51;78.84;101116.39;104355;1296;61753;-57
2024/01/26 12:57:28;;;;;;;;;;;;;;;6.47;78.02;101106.94;104214;1295;72293;-54
2024/01/26 13:00:15;;;;;;;;;;;;;;;6.34;78.17;101093.46;104298;1295;68867;-56
2024/01/26 13:03:05;;;;;;;;;;;;;;;6.27;78.68;101084.16;105624;1293;72344;-58
2024/01/26 13:05:51;;;;;;;;;;;;;;;6.28;79.03;101072.52;104240;1298;61188;-58
2024/01/26 13:08:38;;;;;;;;;;;;;;;6.30;79.20;101063.98;104312;1296;61935;-57
2024/01/26 13:11:24;;;;;;;;;;;;;;;6.35;79.04;101051.35;104335;1296;73385;-57
2024/01/26 13:14:10;;;;;;;;;;;;;;;6.35;79.07;101044.33;104203;1295;67235;-55
2024/01/26 13:16:56;;;;;;;;;;;;;;;6.37;78.97;101037.84;104271;1296;71257;-56
2024/01/26 13:19:42;;;;;;;;;;;;;;;6.34;78.87;101028.91;104312;1294;61333;-55
2024/01/26 13:22:28;;;;;;;;;;;;;;;6.31;78.73;101018.27;104303;1297;63717;-57
2024/01/26 13:25:15;;;;;;;;;;;;;;;6.30;79.25;101011.94;104285;1294;73111;-57
2024/01/26 13:28:01;;;;;;;;;;;;;;;6.30;78.62;101007.83;104319;1298;66822;-56
2024/01/26 13:30:48;;;;;;;;;;;;;;;6.27;78.62;100994.11;104290;1298;71210;-56
2024/01/26 13:33:34;;;;;;;;;;;;;;;6.31;78.93;100995.16;104266;1294;61286;-56
2024/01/26 13:36:20;;;;;;;;;;;;;;;6.30;78.88;100985.74;104269;1296;61018;-57
2024/01/26 13:39:07;;;;;;;;;;;;;;;6.30;78.71;100972.39;104313;1294;73282;-56
2024/01/26 13:41:54;;;;;;;;;;;;;;;6.30;78.67;100968.79;104270;1294;67865;-56
2024/01/26 13:44:42;;;;;;;;;;;;;;;6.30;78.87;100956.46;104345;1295;73431;-56
2024/01/26 13:47:29;;;;;;;;;;;;;;;6.31;78.92;100946.71;104355;1296;61125;-56
2024/01/26 13:50:15;;;;;;;;;;;;;;;6.29;79.03;100946.70;104196;1296;59421;-57
2024/01/26 13:53:01;;;;;;;;;;;;;;;6.26;79.12;100943.08;104264;1295;76289;-57
2024/01/26 13:55:51;;;;;;;;;;;;;;;6.25;79.07;100947.02;104096;1296;276408;-56
2024/01/26 13:58:37;;;;;;;;;;;;;;;6.22;79.40;100935.38;104319;1296;71181;-57
2024/01/26 14:01:23;;;;;;;;;;;;;;;6.20;79.76;100925.09;104309;1296;61170;-56
2024/01/26 14:04:09;;;;;;;;;;;;;;;6.14;80.52;100928.13;104373;1295;61156;-56
2024/01/26 14:06:56;;;;;;;;;;;;;;;6.04;81.17;100922.41;104296;1296;76041;-57
2024/01/26 14:09:43;;;;;;;;;;;;;;;5.91;81.52;100915.45;104361;1296;68545;-56
2024/01/26 14:12:29;;;;;;;;;;;;;;;5.78;83.06;100912.24;104323;1294;71367;-56
2024/01/26 14:15:15;;;;;;;;;;;;;;;5.62;84.15;100905.13;104307;1296;61298;-56